createdAt,value
2023-02-19T00:00:49.976Z,1.17
2023-02-19T00:03:58.948Z,1.52
2023-02-19T00:07:01.526Z,1.40
2023-02-19T00:10:04.145Z,1.17
2023-02-19T00:13:06.879Z,1.30
2023-02-19T00:16:12.180Z,1.00
2023-02-19T00:19:19.410Z,1.25
2023-02-19T00:22:22.072Z,1.10
2023-02-19T00:25:24.568Z,1.10
2023-02-19T00:28:27.077Z,1.35
2023-02-19T00:31:33.381Z,1.05
2023-02-19T00:34:36.372Z,0.90
2023-02-19T00:37:38.645Z,1.08
2023-02-19T00:40:41.098Z,1.37
2023-02-19T00:43:43.631Z,0.77
2023-02-19T00:46:47.921Z,1.17
2023-02-19T00:49:50.167Z,0.80
2023-02-19T00:52:52.664Z,1.15
2023-02-19T00:55:55.390Z,1.00
2023-02-19T00:58:58.460Z,1.05
2023-02-19T01:02:01.013Z,1.12
2023-02-19T01:05:04.075Z,1.30
2023-02-19T01:08:06.564Z,1.37
2023-02-19T01:11:10.311Z,1.20
2023-02-19T01:14:13.053Z,1.00
2023-02-19T01:17:15.976Z,1.40
2023-02-19T01:20:18.519Z,1.33
2023-02-19T01:23:21.137Z,1.15
2023-02-19T01:26:26.529Z,1.33
2023-02-19T01:29:29.164Z,1.40
2023-02-19T01:32:32.767Z,1.55
2023-02-19T01:35:38.685Z,1.55
2023-02-19T01:38:41.477Z,1.20
2023-02-19T01:41:44.071Z,1.40
2023-02-19T01:44:46.612Z,1.40
2023-02-19T01:47:58.429Z,1.42
2023-02-19T01:51:06.176Z,1.10
2023-02-19T01:54:12.237Z,1.20
2023-02-19T01:57:20.975Z,1.20
2023-02-19T02:00:24.809Z,1.50
2023-02-19T02:03:29.477Z,1.62
2023-02-19T02:06:39.316Z,1.62
2023-02-19T02:10:00.843Z,1.20
2023-02-19T02:13:03.358Z,1.30
2023-02-19T02:19:23.638Z,1.00
2023-02-19T02:22:35.056Z,0.88
2023-02-19T02:26:11.266Z,0.82
2023-02-19T02:29:17.632Z,0.70
2023-02-19T02:32:26.587Z,0.60
2023-02-19T02:35:35.066Z,0.75
2023-02-19T02:38:41.613Z,1.40
2023-02-19T02:41:45.804Z,1.30
2023-02-19T02:45:07.879Z,1.83
2023-02-19T02:48:35.177Z,1.50
2023-02-19T02:51:41.559Z,1.77
2023-02-19T02:55:02.910Z,1.77
2023-02-19T02:58:07.640Z,1.75
2023-02-19T03:01:42.871Z,1.87
2023-02-19T03:05:17.701Z,1.90
2023-02-19T03:08:30.181Z,1.50
2023-02-19T03:11:55.184Z,1.90
2023-02-19T03:15:21.524Z,1.85
2023-02-19T03:18:46.833Z,1.15
2023-02-19T03:22:00.676Z,1.60
2023-02-19T03:25:33.109Z,1.40
2023-02-19T03:28:59.569Z,1.35
2023-02-19T03:32:18.337Z,1.17
2023-02-19T03:35:27.693Z,1.02
2023-02-19T03:38:39.870Z,1.17
2023-02-19T03:41:55.979Z,1.10
2023-02-19T03:45:25.532Z,0.90
2023-02-19T03:48:35.780Z,0.93
2023-02-19T03:51:49.984Z,0.90
2023-02-19T03:55:03.113Z,1.00
2023-02-19T03:58:32.669Z,1.00
2023-02-19T04:01:44.554Z,0.70
2023-02-19T04:04:59.202Z,0.50
2023-02-19T04:08:16.557Z,0.60
2023-02-19T04:11:22.535Z,0.70
2023-02-19T04:14:31.785Z,0.60
2023-02-19T04:17:39.257Z,0.70
2023-02-19T04:20:44.639Z,0.60
2023-02-19T04:23:48.120Z,0.57
2023-02-19T04:26:51.379Z,0.80
2023-02-19T04:29:54.188Z,1.33
2023-02-19T04:32:56.385Z,0.60
2023-02-19T04:35:59.877Z,0.60
2023-02-19T04:39:02.093Z,0.85
2023-02-19T04:42:05.556Z,1.00
2023-02-19T04:45:08.261Z,0.93
2023-02-19T04:48:11.277Z,0.85
2023-02-19T04:51:13.751Z,0.90
2023-02-19T04:54:16.642Z,0.82
2023-02-19T04:57:18.998Z,1.10
2023-02-19T05:00:22.635Z,1.30
2023-02-19T05:03:24.830Z,1.55
2023-02-19T05:06:27.549Z,1.00
2023-02-19T05:09:29.736Z,1.75
2023-02-19T05:12:32.528Z,1.50
2023-02-19T05:15:35.651Z,1.12
2023-02-19T05:18:38.453Z,1.33
2023-02-19T05:21:40.772Z,1.37
2023-02-19T05:24:43.506Z,1.30
2023-02-19T05:27:45.883Z,1.48
2023-02-19T05:30:51.287Z,1.35
2023-02-19T05:33:56.815Z,1.27
2023-02-19T05:36:59.433Z,1.10
2023-02-19T05:40:01.977Z,1.23
2023-02-19T05:43:05.320Z,1.30
2023-02-19T05:46:08.204Z,1.02
2023-02-19T05:49:11.069Z,1.27
2023-02-19T05:52:13.376Z,1.40
2023-02-19T05:55:16.536Z,2.87
2023-02-19T05:58:18.761Z,2.50
2023-02-19T06:01:23.222Z,2.78
2023-02-19T06:04:25.773Z,2.30
2023-02-19T06:07:28.044Z,2.58
2023-02-19T06:10:31.645Z,2.20
2023-02-19T06:13:34.186Z,2.22
2023-02-19T06:16:36.684Z,2.08
2023-02-19T06:19:39.209Z,1.80
2023-02-19T06:22:41.790Z,2.10
2023-02-19T06:25:44.028Z,2.28
2023-02-19T06:28:51.193Z,1.85
2023-02-19T06:31:53.963Z,2.05
2023-02-19T06:34:56.867Z,1.90
2023-02-19T06:37:59.166Z,2.33
2023-02-19T06:41:04.180Z,2.22
2023-02-19T06:44:06.721Z,2.65
2023-02-19T06:47:09.768Z,3.42
2023-02-19T06:50:12.091Z,2.67
2023-02-19T06:53:14.754Z,2.95
2023-02-19T06:56:35.701Z,3.80
2023-02-19T06:59:38.220Z,3.70
2023-02-19T07:02:40.391Z,4.12
2023-02-19T07:05:43.878Z,4.93
2023-02-19T07:08:46.201Z,5.15
2023-02-19T07:11:49.194Z,5.78
2023-02-19T07:14:51.405Z,6.18
2023-02-19T07:17:53.957Z,6.18
2023-02-19T07:21:01.648Z,5.80
2023-02-19T07:24:05.691Z,6.70
2023-02-19T07:27:07.998Z,6.65
2023-02-19T07:30:10.954Z,7.28
2023-02-19T07:33:13.130Z,7.15
2023-02-19T07:36:17.706Z,8.88
2023-02-19T07:39:19.967Z,8.80
2023-02-19T07:42:22.824Z,8.98
2023-02-19T07:45:25.324Z,9.43
2023-02-19T07:48:27.902Z,9.55
2023-02-19T07:51:30.290Z,9.90
2023-02-19T07:54:33.150Z,9.68
2023-02-19T07:57:35.530Z,9.82
2023-02-19T08:00:39.028Z,10.15
2023-02-19T08:03:42.807Z,9.80
2023-02-19T08:06:45.125Z,9.65
2023-02-19T08:10:07.946Z,9.85
2023-02-19T08:13:25.268Z,11.07
2023-02-19T08:16:41.085Z,10.45
2023-02-19T08:19:44.952Z,7.72
2023-02-19T08:22:47.778Z,5.40
2023-02-19T08:25:51.837Z,2.45
2023-02-19T08:28:54.674Z,1.80
2023-02-19T08:31:56.800Z,1.40
2023-02-19T08:34:59.337Z,1.87
2023-02-19T08:38:02.091Z,2.45
2023-02-19T08:41:07.346Z,2.10
2023-02-19T08:44:10.255Z,2.22
2023-02-19T08:47:12.811Z,2.78
2023-02-19T08:50:15.905Z,2.55
2023-02-19T08:53:18.392Z,2.60
2023-02-19T08:56:20.605Z,3.10
2023-02-19T08:59:23.919Z,4.10
2023-02-19T09:02:26.246Z,4.85
2023-02-19T09:05:28.690Z,6.28
2023-02-19T09:08:31.229Z,7.35
2023-02-19T09:11:33.756Z,7.12
2023-02-19T09:14:36.447Z,7.62
2023-02-19T09:17:39.295Z,7.85
2023-02-19T09:20:41.454Z,7.85
2023-02-19T09:23:43.947Z,8.15
2023-02-19T09:26:49.705Z,9.30
2023-02-19T09:29:52.846Z,9.40
2023-02-19T09:32:55.066Z,9.38
2023-02-19T09:36:01.615Z,10.15
2023-02-19T09:39:06.691Z,9.90
2023-02-19T09:42:27.210Z,9.55
2023-02-19T09:45:29.583Z,10.13
2023-02-19T09:48:32.546Z,10.10
2023-02-19T09:51:37.902Z,10.23
2023-02-19T09:54:43.677Z,10.98
2023-02-19T09:57:47.068Z,11.23
2023-02-19T10:00:55.940Z,10.52
2023-02-19T10:03:58.643Z,11.05
2023-02-19T10:07:03.815Z,11.68
2023-02-19T10:10:15.522Z,12.23
2023-02-19T10:13:30.783Z,10.85
2023-02-19T10:16:33.885Z,11.77
2023-02-19T10:19:36.648Z,11.43
2023-02-19T10:22:39.153Z,11.52
2023-02-19T10:25:46.981Z,11.38
2023-02-19T10:28:49.715Z,11.30
2023-02-19T10:32:13.673Z,11.02
2023-02-19T10:35:16.710Z,9.00
2023-02-19T10:38:20.790Z,8.32
2023-02-19T10:41:25.949Z,6.35
2023-02-19T10:44:52.022Z,5.95
2023-02-19T10:47:54.693Z,4.28
2023-02-19T10:51:04.956Z,3.58
2023-02-19T10:54:24.989Z,2.97
2023-02-19T10:57:30.555Z,2.87
2023-02-19T11:00:33.746Z,3.10
2023-02-19T11:03:36.032Z,3.15
2023-02-19T11:06:39.068Z,2.83
2023-02-19T11:09:45.440Z,2.97
2023-02-19T11:12:50.497Z,2.25
2023-02-19T11:15:55.163Z,2.05
2023-02-19T11:18:58.329Z,2.00
2023-02-19T11:22:01.626Z,1.62
2023-02-19T11:25:17.862Z,1.25
2023-02-19T11:28:26.837Z,1.23
2023-02-19T11:31:32.726Z,1.60
2023-02-19T11:34:35.611Z,1.33
2023-02-19T11:37:55.890Z,1.40
2023-02-19T11:41:14.692Z,1.30
2023-02-19T11:44:39.269Z,2.15
2023-02-19T11:47:57.939Z,1.90
2023-02-19T11:54:37.485Z,2.33
2023-02-19T11:58:24.587Z,1.80
2023-02-19T12:02:05.061Z,1.65
2023-02-19T12:05:41.848Z,1.48
2023-02-19T12:09:14.864Z,1.77
2023-02-19T12:12:29.549Z,2.00
2023-02-19T12:18:56.411Z,1.90
2023-02-19T12:22:17.053Z,2.15
2023-02-19T12:25:41.888Z,1.45
2023-02-19T12:28:56.124Z,1.30
2023-02-19T12:32:09.847Z,1.48
2023-02-19T12:35:21.067Z,1.00
2023-02-19T12:38:45.102Z,1.33
2023-02-19T12:42:07.028Z,1.65
2023-02-19T12:45:20.714Z,1.25
2023-02-19T12:48:47.479Z,1.23
2023-02-19T12:51:57.482Z,1.35
2023-02-19T12:55:11.657Z,1.50
2023-02-19T12:58:44.646Z,1.20
2023-02-19T13:01:58.116Z,1.50
2023-02-19T13:05:21.092Z,1.40
2023-02-19T13:08:35.583Z,1.30
2023-02-19T13:12:17.725Z,1.37
2023-02-19T13:15:32.815Z,0.80
2023-02-19T13:18:41.898Z,0.77
2023-02-19T13:22:09.881Z,0.93
2023-02-19T13:25:14.805Z,1.20
2023-02-19T13:28:59.353Z,1.10
2023-02-19T13:32:24.437Z,0.93
2023-02-19T13:35:50.989Z,1.05
2023-02-19T13:38:57.324Z,1.00
2023-02-19T13:42:00.122Z,0.70
2023-02-19T13:45:06.223Z,0.50
2023-02-19T13:48:26.474Z,0.82
2023-02-19T13:51:28.863Z,0.80
2023-02-19T13:54:39.973Z,0.85
2023-02-19T13:57:42.536Z,0.60
2023-02-19T14:00:50.768Z,0.80
2023-02-19T14:07:05.669Z,0.40
2023-02-19T14:10:13.742Z,0.30
2023-02-19T14:13:50.699Z,0.50
2023-02-19T14:17:04.961Z,0.65
2023-02-19T14:20:10.316Z,0.68
2023-02-19T14:23:30.890Z,0.73
2023-02-19T14:26:34.533Z,0.60
2023-02-19T14:29:37.577Z,0.65
2023-02-19T14:32:43.596Z,0.62
2023-02-19T14:35:52.556Z,0.80
2023-02-19T14:39:02.489Z,0.82
2023-02-19T14:42:12.320Z,0.90
2023-02-19T14:45:17.967Z,0.88
2023-02-19T14:48:28.876Z,0.80
2023-02-19T14:51:37.164Z,0.70
2023-02-19T14:55:01.662Z,1.35
2023-02-19T14:58:13.459Z,1.05
2023-02-19T15:01:28.815Z,0.80
2023-02-19T15:04:37.054Z,0.77
2023-02-19T15:07:41.894Z,0.77
2023-02-19T15:10:44.886Z,0.80
2023-02-19T15:13:54.450Z,0.60
2023-02-19T15:17:04.088Z,0.52
2023-02-19T15:20:11.517Z,0.70
2023-02-19T15:23:20.949Z,0.80
2023-02-19T15:26:34.306Z,0.65
2023-02-19T15:29:46.211Z,0.20
2023-02-19T15:32:54.716Z,0.30
2023-02-19T15:36:04.712Z,0.57
2023-02-19T15:39:07.360Z,0.32
2023-02-19T15:42:15.750Z,0.57
2023-02-19T15:45:41.534Z,0.40
2023-02-19T15:49:09.753Z,0.30
2023-02-19T15:52:22.620Z,0.60
2023-02-19T15:55:50.822Z,0.50
2023-02-19T15:59:24.366Z,0.60
2023-02-19T16:02:27.837Z,0.50
2023-02-19T16:05:36.966Z,0.68
2023-02-19T16:08:40.490Z,1.40
2023-02-19T16:12:22.021Z,0.30
2023-02-19T16:15:24.626Z,0.30
2023-02-19T16:18:28.940Z,0.77
2023-02-19T16:21:32.071Z,0.52
2023-02-19T16:24:40.694Z,0.45
2023-02-19T16:27:44.377Z,0.30
2023-02-19T16:30:59.100Z,0.40
2023-02-19T16:34:17.675Z,0.37
2023-02-19T16:37:41.042Z,0.40
2023-02-19T16:40:50.832Z,0.50
2023-02-19T16:43:53.318Z,0.37
2023-02-19T16:47:02.045Z,0.50
2023-02-19T16:50:13.265Z,0.40
2023-02-19T16:53:20.329Z,0.32
2023-02-19T16:56:23.336Z,0.20
2023-02-19T16:59:25.508Z,0.40
2023-02-19T17:02:28.871Z,0.28
2023-02-19T17:05:32.560Z,0.30
2023-02-19T17:08:38.504Z,0.20
2023-02-19T17:11:44.516Z,0.50
2023-02-19T17:14:47.334Z,0.45
2023-02-19T17:17:49.570Z,0.50
2023-02-19T17:21:05.114Z,0.60
2023-02-19T17:24:07.941Z,0.70
2023-02-19T17:27:12.332Z,0.60
2023-02-19T17:30:31.405Z,0.55
2023-02-19T17:33:34.281Z,0.40
2023-02-19T17:36:37.977Z,0.32
2023-02-19T17:39:40.467Z,0.30
2023-02-19T17:42:42.993Z,0.20
2023-02-19T17:45:45.828Z,0.40
2023-02-19T17:48:49.050Z,0.35
2023-02-19T17:51:51.924Z,0.40
2023-02-19T17:54:54.479Z,0.30
2023-02-19T17:57:57.307Z,0.40
2023-02-19T18:00:59.535Z,0.50
2023-02-19T18:04:02.734Z,0.35
2023-02-19T18:07:05.145Z,0.50
2023-02-19T18:10:08.384Z,0.50
2023-02-19T18:13:11.013Z,0.55
2023-02-19T18:16:15.658Z,0.62
2023-02-19T18:19:18.452Z,0.35
2023-02-19T18:22:21.460Z,0.60
2023-02-19T18:25:24.813Z,0.65
2023-02-19T18:28:28.232Z,0.30
2023-02-19T18:31:34.329Z,0.32
2023-02-19T18:34:38.008Z,0.40
2023-02-19T18:37:40.559Z,0.50
2023-02-19T18:40:43.865Z,0.30
2023-02-19T18:43:47.497Z,0.62
2023-02-19T18:46:50.728Z,0.52
2023-02-19T18:49:55.707Z,0.70
2023-02-19T18:52:58.323Z,0.60
2023-02-19T18:56:01.997Z,0.68
2023-02-19T18:59:04.644Z,0.70
2023-02-19T19:02:09.286Z,0.77
2023-02-19T19:05:13.613Z,0.98
2023-02-19T19:08:15.854Z,0.73
2023-02-19T19:11:19.669Z,0.68
2023-02-19T19:14:22.335Z,0.50
2023-02-19T19:17:24.931Z,1.10
2023-02-19T19:20:27.904Z,1.00
2023-02-19T19:23:31.428Z,0.70
2023-02-19T19:26:34.731Z,0.90
2023-02-19T19:29:37.759Z,0.70
2023-02-19T19:32:40.201Z,0.80
2023-02-19T19:35:43.494Z,0.70
2023-02-19T19:38:46.932Z,0.80
2023-02-19T19:41:54.876Z,0.80
2023-02-19T19:44:57.077Z,0.98
2023-02-19T19:47:59.658Z,1.02
2023-02-19T19:51:01.947Z,0.98
2023-02-19T19:54:05.085Z,0.85
2023-02-19T19:57:07.918Z,1.10
2023-02-19T20:00:14.568Z,1.10
2023-02-19T20:03:18.450Z,0.95
2023-02-19T20:06:29.838Z,1.17
2023-02-19T20:09:32.778Z,0.93
2023-02-19T20:12:34.920Z,1.12
2023-02-19T20:15:37.473Z,1.05
2023-02-19T20:18:40.466Z,0.90
2023-02-19T20:21:51.279Z,1.12
2023-02-19T20:24:54.677Z,1.30
2023-02-19T20:27:57.741Z,1.42
2023-02-19T20:31:00.508Z,0.98
2023-02-19T20:34:03.576Z,1.50
2023-02-19T20:37:07.291Z,1.05
2023-02-19T20:40:11.376Z,1.10
2023-02-19T20:43:13.736Z,1.20
2023-02-19T20:46:16.770Z,0.93
2023-02-19T20:49:21.770Z,1.37
2023-02-19T20:52:24.836Z,1.30
2023-02-19T20:55:28.040Z,1.05
2023-02-19T20:58:30.867Z,1.60
2023-02-19T21:01:33.123Z,1.20
2023-02-19T21:04:38.623Z,1.40
2023-02-19T21:07:41.129Z,1.30
2023-02-19T21:10:45.514Z,1.95
2023-02-19T21:13:48.271Z,1.30
2023-02-19T21:16:51.361Z,1.52
2023-02-19T21:19:53.664Z,1.23
2023-02-19T21:22:56.826Z,1.10
2023-02-19T21:26:04.446Z,1.50
2023-02-19T21:29:11.047Z,1.40
2023-02-19T21:32:13.899Z,1.45
2023-02-19T21:35:17.537Z,1.48
2023-02-19T21:38:20.061Z,1.85
2023-02-19T21:41:25.941Z,1.58
2023-02-19T21:44:28.499Z,1.20
2023-02-19T21:47:31.686Z,1.20
2023-02-19T21:50:34.241Z,1.40
2023-02-19T21:53:37.442Z,1.02
2023-02-19T21:56:40.607Z,1.17
2023-02-19T21:59:43.372Z,1.30
2023-02-19T22:02:45.859Z,1.27
2023-02-19T22:05:48.984Z,1.25
2023-02-19T22:08:52.257Z,1.23
2023-02-19T22:11:56.119Z,1.17
2023-02-19T22:14:58.315Z,1.05
2023-02-19T22:18:01.104Z,0.98
2023-02-19T22:21:05.118Z,0.90
2023-02-19T22:24:07.995Z,1.37
2023-02-19T22:27:10.360Z,0.85
2023-02-19T22:30:13.403Z,1.17
2023-02-19T22:33:16.059Z,1.08
2023-02-19T22:36:23.255Z,0.95
2023-02-19T22:39:27.029Z,1.05
2023-02-19T22:42:29.895Z,0.73
2023-02-19T22:45:32.437Z,0.93
2023-02-19T22:48:35.299Z,1.02
2023-02-19T22:51:37.852Z,0.75
2023-02-19T22:54:41.532Z,0.90
2023-02-19T22:57:46.112Z,0.98
2023-02-19T23:00:50.121Z,1.20
2023-02-19T23:03:57.736Z,0.88
2023-02-19T23:07:00.644Z,1.17
2023-02-19T23:10:03.404Z,1.58
2023-02-19T23:13:06.088Z,1.42
2023-02-19T23:16:09.408Z,1.08
2023-02-19T23:19:15.506Z,1.35
2023-02-19T23:22:18.145Z,1.00
2023-02-19T23:25:20.961Z,1.00
2023-02-19T23:28:23.685Z,1.00
2023-02-19T23:31:30.032Z,1.02
2023-02-19T23:34:32.555Z,1.00
2023-02-19T23:37:35.756Z,1.10
2023-02-19T23:40:38.615Z,1.42
2023-02-19T23:43:42.021Z,1.02
2023-02-19T23:46:45.304Z,0.90
2023-02-19T23:49:48.690Z,1.08
2023-02-19T23:52:51.176Z,0.93
2023-02-19T23:55:54.039Z,1.25
2023-02-19T23:58:56.839Z,1.10
